sensor_id;sensor_type;location;lat;lon;timestamp;pressure;altitude;pressure_sealevel;temperature;humidity
3150;BME280;32503;47.748;8.960;2023-03-23T00:01:09;96430.03;;;13.12;53.19
3150;BME280;32503;47.748;8.960;2023-03-23T00:03:38;96430.78;;;13.05;53.54
3150;BME280;32503;47.748;8.960;2023-03-23T00:06:07;96432.69;;;12.97;53.79
3150;BME280;32503;47.748;8.960;2023-03-23T00:08:37;96440.84;;;13.01;53.68
3150;BME280;32503;47.748;8.960;2023-03-23T00:11:12;96433.78;;;12.89;54.06
3150;BME280;32503;47.748;8.960;2023-03-23T00:13:42;96437.59;;;12.77;54.27
3150;BME280;32503;47.748;8.960;2023-03-23T00:16:10;96438.75;;;12.73;54.31
3150;BME280;32503;47.748;8.960;2023-03-23T00:18:44;96444.53;;;12.67;54.73
3150;BME280;32503;47.748;8.960;2023-03-23T00:21:11;96441.00;;;12.67;54.37
3150;BME280;32503;47.748;8.960;2023-03-23T00:23:39;96439.91;;;12.71;54.51
3150;BME280;32503;47.748;8.960;2023-03-23T00:26:06;96437.59;;;12.77;54.81
3150;BME280;32503;47.748;8.960;2023-03-23T00:28:35;96438.00;;;12.83;54.75
3150;BME280;32503;47.748;8.960;2023-03-23T00:31:07;96439.59;;;12.87;54.65
3150;BME280;32503;47.748;8.960;2023-03-23T00:33:37;96433.81;;;12.93;54.54
3150;BME280;32503;47.748;8.960;2023-03-23T00:36:11;96438.50;;;12.96;54.57
3150;BME280;32503;47.748;8.960;2023-03-23T00:38:40;96436.91;;;12.95;54.68
3150;BME280;32503;47.748;8.960;2023-03-23T00:41:08;96433.84;;;12.96;54.38
3150;BME280;32503;47.748;8.960;2023-03-23T00:43:38;96431.13;;;12.96;54.70
3150;BME280;32503;47.748;8.960;2023-03-23T00:46:05;96429.19;;;12.97;54.56
3150;BME280;32503;47.748;8.960;2023-03-23T00:48:36;96422.97;;;12.93;54.10
3150;BME280;32503;47.748;8.960;2023-03-23T00:51:07;96427.63;;;12.96;53.90
3150;BME280;32503;47.748;8.960;2023-03-23T00:53:37;96419.47;;;12.88;54.45
3150;BME280;32503;47.748;8.960;2023-03-23T00:56:06;96412.06;;;12.85;54.18
3150;BME280;32503;47.748;8.960;2023-03-23T00:58:33;96405.88;;;12.81;54.41
3150;BME280;32503;47.748;8.960;2023-03-23T01:01:02;96405.47;;;12.83;54.32
3150;BME280;32503;47.748;8.960;2023-03-23T01:03:29;96406.63;;;12.78;54.33
3150;BME280;32503;47.748;8.960;2023-03-23T01:05:57;96404.28;;;12.77;54.70
3150;BME280;32503;47.748;8.960;2023-03-23T01:08:25;96376.31;;;12.62;54.33
3150;BME280;32503;47.748;8.960;2023-03-23T01:11:05;96398.47;;;12.78;54.13
3150;BME280;32503;47.748;8.960;2023-03-23T01:13:33;96389.56;;;12.74;54.52
3150;BME280;32503;47.748;8.960;2023-03-23T01:16:02;96390.34;;;12.78;54.05
3150;BME280;32503;47.748;8.960;2023-03-23T01:18:29;96391.88;;;12.79;53.95
3150;BME280;32503;47.748;8.960;2023-03-23T01:20:56;96393.06;;;12.82;54.27
3150;BME280;32503;47.748;8.960;2023-03-23T01:23:23;96385.66;;;12.75;54.09
3150;BME280;32503;47.748;8.960;2023-03-23T01:25:50;96371.69;;;12.69;54.38
3150;BME280;32503;47.748;8.960;2023-03-23T01:28:20;96384.94;;;12.85;54.20
3150;BME280;32503;47.748;8.960;2023-03-23T01:30:47;96381.84;;;12.83;54.64
3150;BME280;32503;47.748;8.960;2023-03-23T01:33:15;96384.56;;;12.87;54.66
3150;BME280;32503;47.748;8.960;2023-03-23T01:35:42;96377.59;;;12.89;54.07
3150;BME280;32503;47.748;8.960;2023-03-23T01:38:09;96378.00;;;12.92;54.41
3150;BME280;32503;47.748;8.960;2023-03-23T01:40:36;96375.28;;;12.92;54.10
3150;BME280;32503;47.748;8.960;2023-03-23T01:43:10;96388.47;;;12.93;54.68
3150;BME280;32503;47.748;8.960;2023-03-23T01:45:40;96383.06;;;12.97;54.63
3150;BME280;32503;47.748;8.960;2023-03-23T01:48:15;96382.28;;;12.96;54.44
3150;BME280;32503;47.748;8.960;2023-03-23T01:50:51;96385.00;;;13.00;53.95
3150;BME280;32503;47.748;8.960;2023-03-23T01:53:21;96382.69;;;13.02;53.86
3150;BME280;32503;47.748;8.960;2023-03-23T01:55:50;96402.03;;;12.97;54.46
3150;BME280;32503;47.748;8.960;2023-03-23T01:58:22;96387.28;;;12.83;55.10
3150;BME280;32503;47.748;8.960;2023-03-23T02:00:53;96407.81;;;12.92;55.21
3150;BME280;32503;47.748;8.960;2023-03-23T02:03:22;96416.75;;;12.88;55.46
3150;BME280;32503;47.748;8.960;2023-03-23T02:05:51;96397.25;;;12.68;55.36
3150;BME280;32503;47.748;8.960;2023-03-23T02:08:19;96402.72;;;12.79;55.05
3150;BME280;32503;47.748;8.960;2023-03-23T02:10:46;96391.53;;;12.84;54.93
3150;BME280;32503;47.748;8.960;2023-03-23T02:13:13;96405.47;;;12.83;55.58
3150;BME280;32503;47.748;8.960;2023-03-23T02:15:52;96402.69;;;12.68;55.64
3150;BME280;32503;47.748;8.960;2023-03-23T02:18:37;96407.31;;;12.64;55.95
3150;BME280;32503;47.748;8.960;2023-03-23T02:21:38;96418.50;;;12.59;55.85
3150;BME280;32503;47.748;8.960;2023-03-23T02:28:10;96400.75;;;12.69;56.23
3150;BME280;32503;47.748;8.960;2023-03-23T02:31:14;96382.91;;;12.68;56.04
3150;BME280;32503;47.748;8.960;2023-03-23T02:33:51;96388.03;;;12.80;55.80
3150;BME280;32503;47.748;8.960;2023-03-23T02:36:25;96391.91;;;12.86;55.77
3150;BME280;32503;47.748;8.960;2023-03-23T02:39:00;96401.63;;;12.91;55.60
3150;BME280;32503;47.748;8.960;2023-03-23T02:41:34;96400.28;;;12.60;56.01
3150;BME280;32503;47.748;8.960;2023-03-23T02:44:04;96409.66;;;12.66;56.08
3150;BME280;32503;47.748;8.960;2023-03-23T02:46:32;96411.91;;;12.53;56.07
3150;BME280;32503;47.748;8.960;2023-03-23T02:49:03;96414.16;;;12.47;56.35
3150;BME280;32503;47.748;8.960;2023-03-23T02:51:33;96397.47;;;12.38;57.04
3150;BME280;32503;47.748;8.960;2023-03-23T02:54:02;96406.00;;;12.40;57.37
3150;BME280;32503;47.748;8.960;2023-03-23T02:56:31;96397.50;;;12.45;56.96
3150;BME280;32503;47.748;8.960;2023-03-23T02:58:59;96393.28;;;12.51;56.85
3150;BME280;32503;47.748;8.960;2023-03-23T03:02:03;96395.31;;;12.62;56.65
3150;BME280;32503;47.748;8.960;2023-03-23T03:04:34;96394.91;;;12.63;56.25
3150;BME280;32503;47.748;8.960;2023-03-23T03:07:29;96381.75;;;12.62;57.15
3150;BME280;32503;47.748;8.960;2023-03-23T03:09:59;96363.91;;;12.61;56.60
3150;BME280;32503;47.748;8.960;2023-03-23T03:12:37;96360.81;;;12.62;57.27
3150;BME280;32503;47.748;8.960;2023-03-23T03:15:16;96361.19;;;12.61;57.67
3150;BME280;32503;47.748;8.960;2023-03-23T03:17:52;96342.16;;;12.46;57.71
3150;BME280;32503;47.748;8.960;2023-03-23T03:20:23;96341.25;;;12.28;58.08
3150;BME280;32503;47.748;8.960;2023-03-23T03:22:52;96334.97;;;12.13;58.84
3150;BME280;32503;47.748;8.960;2023-03-23T03:25:20;96310.09;;;11.97;59.19
3150;BME280;32503;47.748;8.960;2023-03-23T03:27:49;96331.75;;;11.93;59.52
3150;BME280;32503;47.748;8.960;2023-03-23T03:30:23;96350.63;;;11.89;59.95
3150;BME280;32503;47.748;8.960;2023-03-23T03:32:52;96338.53;;;11.76;60.16
3150;BME280;32503;47.748;8.960;2023-03-23T03:35:23;96318.84;;;11.79;60.28
3150;BME280;32503;47.748;8.960;2023-03-23T03:37:51;96309.13;;;11.74;60.34
3150;BME280;32503;47.748;8.960;2023-03-23T03:40:21;96305.59;;;11.70;60.10
3150;BME280;32503;47.748;8.960;2023-03-23T03:42:48;96304.47;;;11.75;59.95
3150;BME280;32503;47.748;8.960;2023-03-23T03:45:17;96308.00;;;11.79;59.83
3150;BME280;32503;47.748;8.960;2023-03-23T03:47:45;96301.00;;;11.78;60.88
3150;BME280;32503;47.748;8.960;2023-03-23T03:50:12;96304.09;;;11.76;60.91
3150;BME280;32503;47.748;8.960;2023-03-23T03:52:40;96321.63;;;11.90;60.18
3150;BME280;32503;47.748;8.960;2023-03-23T03:55:09;96334.50;;;12.00;59.81
3150;BME280;32503;47.748;8.960;2023-03-23T03:57:37;96348.47;;;12.06;59.55
3150;BME280;32503;47.748;8.960;2023-03-23T04:00:06;96351.22;;;12.13;59.29
3150;BME280;32503;47.748;8.960;2023-03-23T04:02:41;96349.34;;;12.21;59.03
3150;BME280;32503;47.748;8.960;2023-03-23T04:05:10;96347.03;;;12.26;58.86
3150;BME280;32503;47.748;8.960;2023-03-23T04:07:37;96344.78;;;12.32;59.10
3150;BME280;32503;47.748;8.960;2023-03-23T04:10:08;96335.88;;;12.39;58.41
3150;BME280;32503;47.748;8.960;2023-03-23T04:12:37;96342.53;;;12.45;58.44
3150;BME280;32503;47.748;8.960;2023-03-23T04:15:05;96346.81;;;12.49;58.24
3150;BME280;32503;47.748;8.960;2023-03-23T04:17:33;96336.31;;;12.44;57.67
3150;BME280;32503;47.748;8.960;2023-03-23T04:20:00;96357.28;;;12.58;57.72
3150;BME280;32503;47.748;8.960;2023-03-23T04:22:32;96361.56;;;12.56;57.65
3150;BME280;32503;47.748;8.960;2023-03-23T04:25:00;96359.97;;;12.55;57.31
3150;BME280;32503;47.748;8.960;2023-03-23T04:27:31;96357.69;;;12.57;57.19
3150;BME280;32503;47.748;8.960;2023-03-23T04:29:58;96333.63;;;12.48;57.47
3150;BME280;32503;47.748;8.960;2023-03-23T04:32:25;96335.22;;;12.60;57.95
3150;BME280;32503;47.748;8.960;2023-03-23T04:34:55;96343.34;;;12.60;57.89
3150;BME280;32503;47.748;8.960;2023-03-23T04:37:23;96329.00;;;12.56;57.45
3150;BME280;32503;47.748;8.960;2023-03-23T04:39:55;96340.31;;;12.68;57.22
3150;BME280;32503;47.748;8.960;2023-03-23T04:42:28;96346.53;;;12.69;57.59
3150;BME280;32503;47.748;8.960;2023-03-23T04:44:57;96314.69;;;12.51;57.71
3150;BME280;32503;47.748;8.960;2023-03-23T04:47:26;96326.69;;;12.58;58.02
3150;BME280;32503;47.748;8.960;2023-03-23T04:49:55;96324.75;;;12.55;57.22
3150;BME280;32503;47.748;8.960;2023-03-23T04:52:23;96322.81;;;12.55;57.89
3150;BME280;32503;47.748;8.960;2023-03-23T04:54:50;96337.56;;;12.61;58.19
3150;BME280;32503;47.748;8.960;2023-03-23T04:57:18;96338.38;;;12.69;58.04
3150;BME280;32503;47.748;8.960;2023-03-23T04:59:45;96334.50;;;12.66;57.62
3150;BME280;32503;47.748;8.960;2023-03-23T05:02:14;96327.88;;;12.60;57.64
3150;BME280;32503;47.748;8.960;2023-03-23T05:04:43;96325.16;;;12.57;57.79
3150;BME280;32503;47.748;8.960;2023-03-23T05:07:11;96323.97;;;12.54;58.19
3150;BME280;32503;47.748;8.960;2023-03-23T05:09:38;96328.22;;;12.48;57.66
3150;BME280;32503;47.748;8.960;2023-03-23T05:12:08;96329.75;;;12.52;57.51
3150;BME280;32503;47.748;8.960;2023-03-23T05:14:35;96332.09;;;12.50;57.66
3150;BME280;32503;47.748;8.960;2023-03-23T05:17:07;96324.69;;;12.47;58.13
3150;BME280;32503;47.748;8.960;2023-03-23T05:19:36;96320.78;;;12.34;58.61
3150;BME280;32503;47.748;8.960;2023-03-23T05:22:03;96330.44;;;12.35;58.32
3150;BME280;32503;47.748;8.960;2023-03-23T05:24:31;96329.66;;;12.35;58.33
3150;BME280;32503;47.748;8.960;2023-03-23T05:26:58;96334.31;;;12.30;58.23
3150;BME280;32503;47.748;8.960;2023-03-23T05:29:26;96340.06;;;12.25;58.60
3150;BME280;32503;47.748;8.960;2023-03-23T05:31:55;96342.78;;;12.25;58.88
3150;BME280;32503;47.748;8.960;2023-03-23T05:34:25;96339.31;;;12.25;59.09
3150;BME280;32503;47.748;8.960;2023-03-23T05:36:55;96345.13;;;12.27;59.13
3150;BME280;32503;47.748;8.960;2023-03-23T05:39:23;96324.16;;;12.17;59.22
3150;BME280;32503;47.748;8.960;2023-03-23T05:41:50;96343.59;;;12.33;59.16
3150;BME280;32503;47.748;8.960;2023-03-23T05:44:18;96348.66;;;12.38;58.57
3150;BME280;32503;47.748;8.960;2023-03-23T05:46:46;96338.13;;;12.26;59.26
3150;BME280;32503;47.748;8.960;2023-03-23T05:49:13;96362.63;;;12.40;58.60
3150;BME280;32503;47.748;8.960;2023-03-23T05:51:41;96365.31;;;12.40;58.61
3150;BME280;32503;47.748;8.960;2023-03-23T05:54:11;96361.47;;;12.41;59.46
3150;BME280;32503;47.748;8.960;2023-03-23T05:56:38;96361.47;;;12.41;58.82
3150;BME280;32503;47.748;8.960;2023-03-23T05:59:05;96368.84;;;12.41;58.74
3150;BME280;32503;47.748;8.960;2023-03-23T06:01:32;96369.22;;;12.43;59.24
3150;BME280;32503;47.748;8.960;2023-03-23T06:03:59;96374.09;;;12.85;60.73
3150;BME280;32503;47.748;8.960;2023-03-23T06:06:27;96362.47;;;12.81;59.44
3150;BME280;32503;47.748;8.960;2023-03-23T06:08:55;96376.44;;;12.90;58.94
3150;BME280;32503;47.748;8.960;2023-03-23T06:11:24;96374.09;;;12.85;59.20
3150;BME280;32503;47.748;8.960;2023-03-23T06:13:51;96376.75;;;12.75;58.88
3150;BME280;32503;47.748;8.960;2023-03-23T06:16:19;96375.53;;;12.65;58.91
3150;BME280;32503;47.748;8.960;2023-03-23T06:18:46;96370.84;;;12.58;59.08
3150;BME280;32503;47.748;8.960;2023-03-23T06:21:14;96371.25;;;12.57;58.95
3150;BME280;32503;47.748;8.960;2023-03-23T06:23:44;96375.09;;;12.56;58.85
3150;BME280;32503;47.748;8.960;2023-03-23T06:26:13;96368.84;;;12.44;59.42
3150;BME280;32503;47.748;8.960;2023-03-23T06:28:43;96371.13;;;12.42;59.91
3150;BME280;32503;47.748;8.960;2023-03-23T06:31:10;96375.41;;;12.40;59.63
3150;BME280;32503;47.748;8.960;2023-03-23T06:33:40;96368.47;;;12.46;59.37
3150;BME280;32503;47.748;8.960;2023-03-23T06:36:08;96372.34;;;12.48;59.65
3150;BME280;32503;47.748;8.960;2023-03-23T06:38:37;96382.50;;;12.59;58.90
3150;BME280;32503;47.748;8.960;2023-03-23T06:41:05;96346.00;;;12.45;59.24
3150;BME280;32503;47.748;8.960;2023-03-23T06:43:32;96355.38;;;12.59;58.77
3150;BME280;32503;47.748;8.960;2023-03-23T06:46:03;96372.84;;;12.68;58.43
3150;BME280;32503;47.748;8.960;2023-03-23T06:48:30;96380.28;;;12.82;58.65
3150;BME280;32503;47.748;8.960;2023-03-23T06:50:58;96367.91;;;12.81;58.56
3150;BME280;32503;47.748;8.960;2023-03-23T06:53:25;96355.91;;;12.89;58.25
3150;BME280;32503;47.748;8.960;2023-03-23T06:55:52;96350.47;;;12.89;57.89
3150;BME280;32503;47.748;8.960;2023-03-23T06:58:19;96350.50;;;12.97;58.07
3150;BME280;32503;47.748;8.960;2023-03-23T07:00:47;96378.50;;;13.22;57.68
3150;BME280;32503;47.748;8.960;2023-03-23T07:03:16;96390.59;;;13.39;57.78
3150;BME280;32503;47.748;8.960;2023-03-23T07:05:46;96387.13;;;13.53;57.33
3150;BME280;32503;47.748;8.960;2023-03-23T07:08:13;96389.88;;;13.60;57.10
3150;BME280;32503;47.748;8.960;2023-03-23T07:10:40;96400.34;;;13.65;57.59
3150;BME280;32503;47.748;8.960;2023-03-23T07:13:07;96402.31;;;13.69;57.90
3150;BME280;32503;47.748;8.960;2023-03-23T07:15:34;96402.31;;;13.76;57.75
3150;BME280;32503;47.748;8.960;2023-03-23T07:18:02;96391.44;;;13.83;57.20
3150;BME280;32503;47.748;8.960;2023-03-23T07:20:31;96386.81;;;13.91;56.97
3150;BME280;32503;47.748;8.960;2023-03-23T07:22:58;96400.41;;;14.09;56.41
3150;BME280;32503;47.748;8.960;2023-03-23T07:25:27;96401.53;;;14.36;55.97
3150;BME280;32503;47.748;8.960;2023-03-23T07:27:54;96393.00;;;14.67;55.24
3150;BME280;32503;47.748;8.960;2023-03-23T07:30:21;96398.38;;;14.92;54.46
3150;BME280;32503;47.748;8.960;2023-03-23T07:32:48;96393.63;;;15.10;53.52
3150;BME280;32503;47.748;8.960;2023-03-23T07:35:16;96402.50;;;15.29;53.09
3150;BME280;32503;47.748;8.960;2023-03-23T07:37:44;96399.66;;;15.50;52.35
3150;BME280;32503;47.748;8.960;2023-03-23T07:40:15;96401.50;;;15.68;51.88
3150;BME280;32503;47.748;8.960;2023-03-23T07:42:46;96403.34;;;15.89;51.17
3150;BME280;32503;47.748;8.960;2023-03-23T07:45:15;96401.72;;;15.99;50.87
3150;BME280;32503;47.748;8.960;2023-03-23T07:47:42;96400.13;;;16.05;50.45
3150;BME280;32503;47.748;8.960;2023-03-23T07:50:10;96403.16;;;16.14;50.57
3150;BME280;32503;47.748;8.960;2023-03-23T07:52:38;96392.25;;;16.14;50.83
3150;BME280;32503;47.748;8.960;2023-03-23T07:55:11;96410.75;;;16.37;50.66
3150;BME280;32503;47.748;8.960;2023-03-23T07:57:43;96404.88;;;16.42;50.11
3150;BME280;32503;47.748;8.960;2023-03-23T08:00:11;96407.44;;;16.60;50.21
3150;BME280;32503;47.748;8.960;2023-03-23T08:02:45;96409.56;;;16.80;49.97
3150;BME280;32503;47.748;8.960;2023-03-23T08:05:12;96406.28;;;16.99;49.84
3150;BME280;32503;47.748;8.960;2023-03-23T08:07:40;96404.22;;;17.11;50.03
3150;BME280;32503;47.748;8.960;2023-03-23T08:10:10;96394.94;;;17.01;48.79
3150;BME280;32503;47.748;8.960;2023-03-23T08:12:40;96396.06;;;17.07;48.67
3150;BME280;32503;47.748;8.960;2023-03-23T08:15:10;96410.00;;;17.16;48.30
3150;BME280;32503;47.748;8.960;2023-03-23T08:17:39;96400.31;;;17.08;47.72
3150;BME280;32503;47.748;8.960;2023-03-23T08:20:09;96423.19;;;17.21;47.28
3150;BME280;32503;47.748;8.960;2023-03-23T08:22:40;96421.13;;;17.29;47.08
3150;BME280;32503;47.748;8.960;2023-03-23T08:25:11;96415.97;;;17.38;46.58
3150;BME280;32503;47.748;8.960;2023-03-23T08:27:40;96410.88;;;17.40;46.18
3150;BME280;32503;47.748;8.960;2023-03-23T08:30:11;96428.59;;;17.59;45.48
3150;BME280;32503;47.748;8.960;2023-03-23T08:32:39;96432.50;;;17.58;45.33
3150;BME280;32503;47.748;8.960;2023-03-23T08:35:08;96434.06;;;17.56;45.24
3150;BME280;32503;47.748;8.960;2023-03-23T08:37:37;96428.69;;;17.49;44.91
3150;BME280;32503;47.748;8.960;2023-03-23T08:40:10;96408.94;;;17.37;44.95
3150;BME280;32503;47.748;8.960;2023-03-23T08:42:38;96419.44;;;17.42;45.15
3150;BME280;32503;47.748;8.960;2023-03-23T08:45:07;96434.78;;;17.63;45.61
3150;BME280;32503;47.748;8.960;2023-03-23T08:47:35;96434.63;;;17.74;44.67
3150;BME280;32503;47.748;8.960;2023-03-23T08:50:06;96437.25;;;17.81;44.78
3150;BME280;32503;47.748;8.960;2023-03-23T08:52:33;96428.56;;;17.90;44.50
3150;BME280;32503;47.748;8.960;2023-03-23T08:55:01;96432.28;;;18.04;44.32
3150;BME280;32503;47.748;8.960;2023-03-23T08:57:30;96443.06;;;18.14;44.24
3150;BME280;32503;47.748;8.960;2023-03-23T08:59:57;96439.38;;;18.25;44.04
3150;BME280;32503;47.748;8.960;2023-03-23T09:02:27;96439.63;;;18.34;43.77
3150;BME280;32503;47.748;8.960;2023-03-23T09:04:56;96443.78;;;18.42;43.63
3150;BME280;32503;47.748;8.960;2023-03-23T09:07:23;96441.03;;;18.42;43.04
3150;BME280;32503;47.748;8.960;2023-03-23T09:09:50;96441.84;;;18.43;43.24
3150;BME280;32503;47.748;8.960;2023-03-23T09:12:18;96441.66;;;18.53;43.25
3150;BME280;32503;47.748;8.960;2023-03-23T09:14:46;96450.09;;;18.63;43.42
3150;BME280;32503;47.748;8.960;2023-03-23T09:17:14;96442.13;;;18.72;43.22
3150;BME280;32503;47.748;8.960;2023-03-23T09:19:41;96445.19;;;18.74;42.26
3150;BME280;32503;47.748;8.960;2023-03-23T09:22:08;96444.97;;;18.65;42.20
3150;BME280;32503;47.748;8.960;2023-03-23T09:24:35;96456.28;;;18.67;42.22
3150;BME280;32503;47.748;8.960;2023-03-23T09:27:03;96458.56;;;18.48;41.83
3150;BME280;32503;47.748;8.960;2023-03-23T09:29:30;96457.00;;;18.47;42.10
3150;BME280;32503;47.748;8.960;2023-03-23T09:31:58;96444.38;;;18.30;42.32
3150;BME280;32503;47.748;8.960;2023-03-23T09:34:25;96466.16;;;18.37;42.02
3150;BME280;32503;47.748;8.960;2023-03-23T09:36:54;96465.56;;;18.49;42.03
3150;BME280;32503;47.748;8.960;2023-03-23T09:39:21;96467.69;;;18.62;42.05
3150;BME280;32503;47.748;8.960;2023-03-23T09:42:06;96450.75;;;18.70;41.94
3150;BME280;32503;47.748;8.960;2023-03-23T09:44:49;96465.91;;;18.99;41.46
3150;BME280;32503;47.748;8.960;2023-03-23T09:47:31;96459.00;;;19.14;40.93
3150;BME280;32503;47.748;8.960;2023-03-23T09:50:03;96459.13;;;19.27;40.43
3150;BME280;32503;47.748;8.960;2023-03-23T09:52:38;96474.22;;;19.55;40.33
3150;BME280;32503;47.748;8.960;2023-03-23T09:55:11;96468.47;;;19.49;39.15
3150;BME280;32503;47.748;8.960;2023-03-23T09:57:47;96472.78;;;19.50;39.28
3150;BME280;32503;47.748;8.960;2023-03-23T10:00:24;96468.75;;;19.55;39.56
3150;BME280;32503;47.748;8.960;2023-03-23T10:03:02;96478.31;;;19.67;38.76
3150;BME280;32503;47.748;8.960;2023-03-23T10:05:34;96482.75;;;19.81;39.38
3150;BME280;32503;47.748;8.960;2023-03-23T10:08:10;96483.03;;;19.86;38.89
3150;BME280;32503;47.748;8.960;2023-03-23T10:10:48;96487.44;;;20.00;39.08
3150;BME280;32503;47.748;8.960;2023-03-23T10:13:27;96488.97;;;20.01;39.16
3150;BME280;32503;47.748;8.960;2023-03-23T10:15:59;96483.84;;;20.03;39.26
3150;BME280;32503;47.748;8.960;2023-03-23T10:18:37;96478.00;;;20.01;38.94
3150;BME280;32503;47.748;8.960;2023-03-23T10:21:08;96481.25;;;19.96;38.82
3150;BME280;32503;47.748;8.960;2023-03-23T10:23:56;96486.03;;;19.92;38.12
3150;BME280;32503;47.748;8.960;2023-03-23T10:26:37;96487.44;;;20.00;38.40
3150;BME280;32503;47.748;8.960;2023-03-23T10:29:16;96490.84;;;20.04;38.14
3150;BME280;32503;47.748;8.960;2023-03-23T10:31:49;96485.94;;;19.96;38.17
3150;BME280;32503;47.748;8.960;2023-03-23T10:34:24;96475.41;;;19.94;38.24
3150;BME280;32503;47.748;8.960;2023-03-23T10:37:02;96476.78;;;20.02;38.42
3150;BME280;32503;47.748;8.960;2023-03-23T10:39:41;96486.41;;;20.11;37.31
3150;BME280;32503;47.748;8.960;2023-03-23T10:42:10;96492.41;;;20.05;37.23
3150;BME280;32503;47.748;8.960;2023-03-23T10:44:37;96479.63;;;19.99;37.06
3150;BME280;32503;47.748;8.960;2023-03-23T10:47:07;96472.19;;;19.79;37.21
3150;BME280;32503;47.748;8.960;2023-03-23T10:49:42;96490.16;;;20.00;37.11
3150;BME280;32503;47.748;8.960;2023-03-23T10:52:28;96489.81;;;19.98;37.29
3150;BME280;32503;47.748;8.960;2023-03-23T10:55:04;96502.63;;;20.05;37.28
3150;BME280;32503;47.748;8.960;2023-03-23T10:57:34;96480.34;;;19.83;37.45
3150;BME280;32503;47.748;8.960;2023-03-23T11:00:05;96490.06;;;19.87;37.34
3150;BME280;32503;47.748;8.960;2023-03-23T11:02:40;96490.22;;;19.80;37.74
3150;BME280;32503;47.748;8.960;2023-03-23T11:05:18;96487.81;;;19.82;37.29
3150;BME280;32503;47.748;8.960;2023-03-23T11:07:53;96487.41;;;19.84;37.26
3150;BME280;32503;47.748;8.960;2023-03-23T11:10:24;96475.50;;;19.70;37.50
3150;BME280;32503;47.748;8.960;2023-03-23T11:12:54;96483.44;;;19.85;37.87
3150;BME280;32503;47.748;8.960;2023-03-23T11:15:28;96482.09;;;19.93;38.55
3150;BME280;32503;47.748;8.960;2023-03-23T11:18:01;96486.41;;;19.94;38.72
3150;BME280;32503;47.748;8.960;2023-03-23T11:20:35;96486.81;;;19.93;38.63
3150;BME280;32503;47.748;8.960;2023-03-23T11:23:20;96479.44;;;19.89;37.94
3150;BME280;32503;47.748;8.960;2023-03-23T11:25:59;96476.19;;;19.95;38.07
3150;BME280;32503;47.748;8.960;2023-03-23T11:28:31;96470.59;;;19.82;38.12
3150;BME280;32503;47.748;8.960;2023-03-23T11:31:02;96475.22;;;19.85;38.10
3150;BME280;32503;47.748;8.960;2023-03-23T11:33:35;96458.06;;;19.81;38.04
3150;BME280;32503;47.748;8.960;2023-03-23T11:36:06;96440.94;;;19.77;38.44
3150;BME280;32503;47.748;8.960;2023-03-23T11:38:35;96466.88;;;20.08;38.75
3150;BME280;32503;47.748;8.960;2023-03-23T11:41:10;96464.47;;;20.11;37.17
3150;BME280;32503;47.748;8.960;2023-03-23T11:43:46;96451.44;;;20.15;37.92
3150;BME280;32503;47.748;8.960;2023-03-23T11:46:29;96462.94;;;20.42;37.32
3150;BME280;32503;47.748;8.960;2023-03-23T11:49:01;96459.50;;;20.55;37.01
3150;BME280;32503;47.748;8.960;2023-03-23T11:51:39;96450.31;;;20.45;36.34
3150;BME280;32503;47.748;8.960;2023-03-23T11:54:16;96461.25;;;20.65;36.04
3150;BME280;32503;47.748;8.960;2023-03-23T11:56:45;96451.41;;;20.80;35.88
3150;BME280;32503;47.748;8.960;2023-03-23T11:59:15;96444.75;;;20.81;35.35
3150;BME280;32503;47.748;8.960;2023-03-23T12:01:54;96439.56;;;20.83;35.24
3150;BME280;32503;47.748;8.960;2023-03-23T12:04:50;96452.69;;;20.92;35.49
3150;BME280;32503;47.748;8.960;2023-03-23T12:07:50;96453.97;;;20.88;36.24
3150;BME280;32503;47.748;8.960;2023-03-23T12:10:29;96452.94;;;20.98;36.05
3150;BME280;32503;47.748;8.960;2023-03-23T12:13:15;96455.44;;;20.92;35.84
3150;BME280;32503;47.748;8.960;2023-03-23T12:15:50;96448.50;;;20.88;36.15
3150;BME280;32503;47.748;8.960;2023-03-23T12:18:38;96445.53;;;20.49;36.33
3150;BME280;32503;47.748;8.960;2023-03-23T12:21:19;96473.75;;;20.66;36.47
3150;BME280;32503;47.748;8.960;2023-03-23T12:23:59;96440.81;;;20.66;36.10
3150;BME280;32503;47.748;8.960;2023-03-23T12:26:31;96450.25;;;20.65;36.23
3150;BME280;32503;47.748;8.960;2023-03-23T12:32:31;96451.78;;;20.82;36.47
3150;BME280;32503;47.748;8.960;2023-03-23T12:35:16;96427.59;;;20.77;36.89
3150;BME280;32503;47.748;8.960;2023-03-23T12:38:03;96442.19;;;20.74;36.26
3150;BME280;32503;47.748;8.960;2023-03-23T12:40:50;96440.63;;;20.73;36.78
3150;BME280;32503;47.748;8.960;2023-03-23T12:43:27;96409.94;;;20.62;37.10
3150;BME280;32503;47.748;8.960;2023-03-23T12:48:59;96422.00;;;20.64;37.37
3150;BME280;32503;47.748;8.960;2023-03-23T12:51:32;96429.50;;;20.64;37.12
3150;BME280;32503;47.748;8.960;2023-03-23T12:54:10;96409.94;;;20.62;37.60
3150;BME280;32503;47.748;8.960;2023-03-23T12:56:47;96415.31;;;20.66;37.84
3150;BME280;32503;47.748;8.960;2023-03-23T12:59:23;96415.22;;;20.69;37.95
3150;BME280;32503;47.748;8.960;2023-03-23T13:01:58;96409.75;;;20.69;37.47
3150;BME280;32503;47.748;8.960;2023-03-23T13:04:30;96414.28;;;20.76;37.40
3150;BME280;32503;47.748;8.960;2023-03-23T13:07:01;96407.13;;;20.78;37.99
3150;BME280;32503;47.748;8.960;2023-03-23T13:09:42;96401.41;;;20.73;37.77
3150;BME280;32503;47.748;8.960;2023-03-23T13:12:15;96398.13;;;20.78;37.89
3150;BME280;32503;47.748;8.960;2023-03-23T13:14:50;96405.19;;;20.79;37.74
3150;BME280;32503;47.748;8.960;2023-03-23T13:17:40;96388.63;;;20.50;37.87
3150;BME280;32503;47.748;8.960;2023-03-23T13:20:48;96391.06;;;20.48;38.90
3150;BME280;32503;47.748;8.960;2023-03-23T13:23:20;96387.97;;;20.45;39.54
3150;BME280;32503;47.748;8.960;2023-03-23T13:25:55;96411.19;;;20.57;39.94
3150;BME280;32503;47.748;8.960;2023-03-23T13:28:27;96406.81;;;20.60;40.13
3150;BME280;32503;47.748;8.960;2023-03-23T13:31:01;96385.56;;;20.48;41.04
3150;BME280;32503;47.748;8.960;2023-03-23T13:33:32;96405.44;;;20.52;40.58
3150;BME280;32503;47.748;8.960;2023-03-23T13:36:08;96392.19;;;20.34;39.98
3150;BME280;32503;47.748;8.960;2023-03-23T13:38:37;96375.97;;;20.06;40.55
3150;BME280;32503;47.748;8.960;2023-03-23T13:41:10;96391.56;;;20.10;40.92
3150;BME280;32503;47.748;8.960;2023-03-23T13:43:42;96380.25;;;19.91;41.21